createdAt,value
2023-03-05T00:01:40.718Z,97115.25
2023-03-05T00:04:07.757Z,97100.16
2023-03-05T00:06:34.294Z,97102.00
2023-03-05T00:09:00.660Z,97123.34
2023-03-05T00:11:27.432Z,97122.97
2023-03-05T00:13:53.982Z,97116.69
2023-03-05T00:16:20.590Z,97114.88
2023-03-05T00:18:47.194Z,97137.03
2023-03-05T00:21:21.089Z,97111.56
2023-03-05T00:23:47.625Z,97109.94
2023-03-05T00:26:14.002Z,97105.09
2023-03-05T00:28:40.720Z,97095.41
2023-03-05T00:31:07.219Z,97115.63
2023-03-05T00:33:33.842Z,97095.28
2023-03-05T00:36:00.332Z,97125.75
2023-03-05T00:38:26.830Z,97095.28
2023-03-05T00:40:53.325Z,97106.16
2023-03-05T00:43:19.877Z,97105.81
2023-03-05T00:45:46.287Z,97106.16
2023-03-05T00:48:12.785Z,97085.16
2023-03-05T00:50:39.186Z,97102.13
2023-03-05T00:53:05.616Z,97098.50
2023-03-05T00:55:32.089Z,97094.69
2023-03-05T00:57:58.477Z,97093.28
2023-03-05T01:00:24.963Z,97057.84
2023-03-05T01:02:51.435Z,97094.41
2023-03-05T01:05:17.925Z,97069.94
2023-03-05T01:07:44.407Z,97059.09
2023-03-05T01:10:11.204Z,97062.50
2023-03-05T01:12:37.853Z,97073.75
2023-03-05T01:15:04.569Z,97055.28
2023-03-05T01:17:31.086Z,97055.72
2023-03-05T01:19:57.953Z,97077.41
2023-03-05T01:22:24.470Z,97057.56
2023-03-05T01:24:50.870Z,97046.97
2023-03-05T01:27:17.281Z,97074.50
2023-03-05T01:29:43.753Z,97051.25
2023-03-05T01:32:10.182Z,97050.78
2023-03-05T01:34:37.027Z,97044.75
2023-03-05T01:37:03.443Z,97030.69
2023-03-05T01:39:30.082Z,97037.53
2023-03-05T01:41:56.515Z,97044.31
2023-03-05T01:44:24.084Z,97045.22
2023-03-05T01:46:50.522Z,97044.31
2023-03-05T01:49:17.076Z,97051.72
2023-03-05T01:51:51.583Z,97043.88
2023-03-05T01:54:19.215Z,97033.72
2023-03-05T01:56:46.291Z,97020.09
2023-03-05T01:59:12.740Z,97033.72
2023-03-05T02:01:40.266Z,97059.78
2023-03-05T02:04:07.643Z,97039.72
2023-03-05T02:06:34.092Z,97049.75
2023-03-05T02:09:00.645Z,97019.66
2023-03-05T02:11:27.448Z,97009.28
2023-03-05T02:13:53.816Z,97029.69
2023-03-05T02:16:20.249Z,97011.25
2023-03-05T02:18:46.736Z,97025.47
2023-03-05T02:21:13.214Z,97020.00
2023-03-05T02:23:39.755Z,97006.75
2023-03-05T02:26:09.194Z,97007.34
2023-03-05T02:28:38.262Z,97023.38
2023-03-05T02:31:13.227Z,97024.06
2023-03-05T02:33:39.683Z,97021.75
2023-03-05T02:36:06.484Z,97002.50
2023-03-05T02:38:32.992Z,97001.00
2023-03-05T02:40:59.470Z,97008.84
2023-03-05T02:43:25.935Z,97032.47
2023-03-05T02:45:52.441Z,97010.56
2023-03-05T02:48:18.981Z,96994.53
2023-03-05T02:50:45.446Z,96995.56
2023-03-05T02:53:11.821Z,96982.88
2023-03-05T02:55:38.208Z,97019.56
2023-03-05T02:58:04.705Z,96997.38
2023-03-05T03:00:31.249Z,96984.72
2023-03-05T03:02:57.765Z,97008.16
2023-03-05T03:05:24.285Z,96978.72
2023-03-05T03:07:50.818Z,96974.22
2023-03-05T03:10:17.281Z,96944.84
2023-03-05T03:12:43.840Z,96981.97
2023-03-05T03:15:10.804Z,96950.72
2023-03-05T03:17:37.264Z,96966.84
2023-03-05T03:20:04.188Z,96973.41
2023-03-05T03:22:30.639Z,96950.03
2023-03-05T03:24:57.186Z,96974.94
2023-03-05T03:27:23.609Z,96957.88
2023-03-05T03:29:50.117Z,96971.00
2023-03-05T03:32:16.616Z,96960.41
2023-03-05T03:34:43.167Z,96951.50
2023-03-05T03:37:09.652Z,96959.03
2023-03-05T03:39:36.064Z,96948.88
2023-03-05T03:42:02.525Z,96951.63
2023-03-05T03:44:28.959Z,96947.25
2023-03-05T03:46:55.370Z,96948.31
2023-03-05T03:49:22.589Z,96940.56
2023-03-05T03:51:49.333Z,96948.88
2023-03-05T03:54:16.107Z,96937.09
2023-03-05T03:56:42.558Z,96962.94
2023-03-05T03:59:09.173Z,96930.66
2023-03-05T04:01:35.580Z,96936.31
2023-03-05T04:04:02.010Z,96954.31
2023-03-05T04:06:28.531Z,96947.50
2023-03-05T04:08:55.048Z,96945.91
2023-03-05T04:11:21.585Z,96940.59
2023-03-05T04:13:48.002Z,96954.44
2023-03-05T04:16:14.878Z,96935.66
2023-03-05T04:18:41.437Z,96951.69
2023-03-05T04:21:07.873Z,96949.38
2023-03-05T04:23:34.255Z,96934.34
2023-03-05T04:26:00.659Z,96925.69
2023-03-05T04:28:27.024Z,96947.72
2023-03-05T04:30:53.476Z,96917.06
2023-03-05T04:33:20.034Z,96948.56
2023-03-05T04:35:46.519Z,96926.41
2023-03-05T04:38:12.959Z,96930.66
2023-03-05T04:40:39.464Z,96912.00
2023-03-05T04:43:05.924Z,96915.00
2023-03-05T04:45:32.365Z,96913.25
2023-03-05T04:47:58.796Z,96899.63
2023-03-05T04:50:25.264Z,96922.81
2023-03-05T04:52:51.988Z,96924.88
2023-03-05T04:55:18.457Z,96906.09
2023-03-05T04:57:44.869Z,96913.47
2023-03-05T05:00:13.225Z,96928.34
2023-03-05T05:02:43.376Z,96919.25
2023-03-05T05:05:10.770Z,96900.34
2023-03-05T05:07:37.817Z,96914.53
2023-03-05T05:10:04.451Z,96927.34
2023-03-05T05:12:30.920Z,96900.44
2023-03-05T05:15:00.410Z,96910.16
2023-03-05T05:17:26.903Z,96903.78
2023-03-05T05:19:53.309Z,96901.47
2023-03-05T05:22:19.710Z,96905.88
2023-03-05T05:25:20.130Z,96898.94
2023-03-05T05:27:46.571Z,96897.59
2023-03-05T05:30:13.086Z,96900.00
2023-03-05T05:32:39.641Z,96914.31
2023-03-05T05:35:06.427Z,96911.41
2023-03-05T05:37:32.934Z,96916.59
2023-03-05T05:39:59.457Z,96910.03
2023-03-05T05:42:25.804Z,96898.13
2023-03-05T05:44:52.724Z,96919.03
2023-03-05T05:47:19.387Z,96916.94
2023-03-05T05:49:45.861Z,96926.66
2023-03-05T05:52:12.457Z,96916.50
2023-03-05T05:54:38.997Z,96916.03
2023-03-05T05:57:05.671Z,96903.00
2023-03-05T05:59:32.152Z,96884.97
2023-03-05T06:01:58.687Z,96905.97
2023-03-05T06:04:25.049Z,96911.28
2023-03-05T06:06:51.552Z,96920.03
2023-03-05T06:09:17.962Z,96904.03
2023-03-05T06:11:44.369Z,96915.00
2023-03-05T06:14:11.450Z,96912.34
2023-03-05T06:16:37.966Z,96907.16
2023-03-05T06:19:04.765Z,96918.22
2023-03-05T06:21:31.296Z,96914.19
2023-03-05T06:23:57.755Z,96905.53
2023-03-05T06:26:25.684Z,96909.34
2023-03-05T06:28:52.292Z,96923.31
2023-03-05T06:31:19.709Z,96925.16
2023-03-05T06:33:46.248Z,96922.16
2023-03-05T06:36:13.317Z,96911.31
2023-03-05T06:38:39.765Z,96916.97
2023-03-05T06:41:07.365Z,96911.91
2023-03-05T06:43:33.767Z,96913.63
2023-03-05T06:46:11.667Z,96893.94
2023-03-05T06:48:38.210Z,96914.44
2023-03-05T06:51:05.280Z,96910.03
2023-03-05T06:53:31.706Z,96885.81
2023-03-05T06:56:00.486Z,96912.84
2023-03-05T06:58:26.962Z,96912.03
2023-03-05T07:00:53.451Z,96889.19
2023-03-05T07:03:19.951Z,96899.00
2023-03-05T07:05:46.403Z,96885.75
2023-03-05T07:08:12.870Z,96897.25
2023-03-05T07:10:39.643Z,96897.03
2023-03-05T07:13:06.270Z,96877.84
2023-03-05T07:15:32.744Z,96907.28
2023-03-05T07:17:59.313Z,96891.47
2023-03-05T07:20:25.694Z,96910.19
2023-03-05T07:22:52.571Z,96877.53
2023-03-05T07:25:19.017Z,96903.59
2023-03-05T07:27:45.712Z,96893.00
2023-03-05T07:30:12.449Z,96892.06
2023-03-05T07:32:38.963Z,96895.41
2023-03-05T07:35:06.527Z,96889.75
2023-03-05T07:37:33.117Z,96875.88
2023-03-05T07:39:59.752Z,96895.84
2023-03-05T07:42:26.161Z,96874.16
2023-03-05T07:44:52.610Z,96895.97
2023-03-05T07:47:19.012Z,96879.09
2023-03-05T07:49:45.473Z,96895.28
2023-03-05T07:52:11.868Z,96875.44
2023-03-05T07:54:38.473Z,96884.53
2023-03-05T07:57:05.285Z,96898.03
2023-03-05T07:59:31.824Z,96895.72
2023-03-05T08:01:58.289Z,96896.84
2023-03-05T08:04:24.656Z,96882.66
2023-03-05T08:06:51.171Z,96885.97
2023-03-05T08:09:17.724Z,96878.13
2023-03-05T08:11:44.463Z,96878.69
2023-03-05T08:14:11.470Z,96875.63
2023-03-05T08:16:38.551Z,96865.59
2023-03-05T08:19:05.445Z,96864.78
2023-03-05T08:21:32.644Z,96862.56
2023-03-05T08:23:59.455Z,96886.00
2023-03-05T08:26:26.846Z,96868.13
2023-03-05T08:28:53.337Z,96893.41
2023-03-05T08:31:20.456Z,96873.47
2023-03-05T08:33:47.374Z,96868.72
2023-03-05T08:36:13.870Z,96879.47
2023-03-05T08:38:40.341Z,96871.78
2023-03-05T08:41:06.761Z,96881.13
2023-03-05T08:43:33.254Z,96859.47
2023-03-05T08:46:00.186Z,96850.25
2023-03-05T08:48:26.863Z,96871.16
2023-03-05T08:50:53.352Z,96873.97
2023-03-05T08:53:19.776Z,96861.41
2023-03-05T08:55:53.476Z,96874.22
2023-03-05T08:58:19.905Z,96885.97
2023-03-05T09:00:46.251Z,96879.66
2023-03-05T09:03:12.745Z,96872.63
2023-03-05T09:05:39.396Z,96869.16
2023-03-05T09:08:06.027Z,96863.50
2023-03-05T09:10:32.561Z,96883.19
2023-03-05T09:12:59.424Z,96860.66
2023-03-05T09:15:25.818Z,96856.81
2023-03-05T09:17:52.233Z,96846.41
2023-03-05T09:20:18.831Z,96865.19
2023-03-05T09:22:45.254Z,96851.34
2023-03-05T09:25:11.776Z,96847.31
2023-03-05T09:27:38.351Z,96850.22
2023-03-05T09:30:05.078Z,96856.34
2023-03-05T09:32:31.551Z,96854.34
2023-03-05T09:34:59.125Z,96864.81
2023-03-05T09:37:25.491Z,96841.91
2023-03-05T09:39:52.002Z,96869.81
2023-03-05T09:42:38.607Z,96840.31
2023-03-05T09:45:24.188Z,96813.97
2023-03-05T09:47:53.690Z,96827.28
2023-03-05T09:50:28.911Z,96821.81
2023-03-05T09:52:55.695Z,96825.66
2023-03-05T09:55:25.788Z,96827.75
2023-03-05T09:57:52.497Z,96820.59
2023-03-05T10:00:29.831Z,96840.41
2023-03-05T10:02:57.175Z,96811.72
2023-03-05T10:05:42.562Z,96803.03
2023-03-05T10:08:08.993Z,96819.78
2023-03-05T10:10:46.059Z,96824.47
2023-03-05T10:13:32.710Z,96822.16
2023-03-05T10:16:18.107Z,96815.28
2023-03-05T10:18:46.554Z,96816.34
2023-03-05T10:21:18.394Z,96823.06
2023-03-05T10:24:20.456Z,96811.31
2023-03-05T10:26:47.167Z,96831.81
2023-03-05T10:29:42.814Z,96803.34
2023-03-05T10:32:18.388Z,96826.13
2023-03-05T10:34:57.197Z,96794.47
2023-03-05T10:37:56.312Z,96793.03
2023-03-05T10:40:43.081Z,96789.34
2023-03-05T10:43:31.230Z,96803.91
2023-03-05T10:45:57.810Z,96786.09
2023-03-05T10:48:24.263Z,96772.31
2023-03-05T10:50:52.151Z,96773.31
2023-03-05T10:53:21.718Z,96780.31
2023-03-05T10:55:48.235Z,96788.06
2023-03-05T10:58:15.727Z,96764.53
2023-03-05T11:00:57.747Z,96778.59
2023-03-05T11:03:24.209Z,96751.44
2023-03-05T11:05:51.492Z,96754.72
2023-03-05T11:08:26.938Z,96778.50
2023-03-05T11:11:13.081Z,96757.97
2023-03-05T11:13:51.694Z,96754.41
2023-03-05T11:16:27.893Z,96744.00
2023-03-05T11:19:14.150Z,96738.00
2023-03-05T11:21:40.821Z,96728.44
2023-03-05T11:24:11.747Z,96721.13
2023-03-05T11:26:38.197Z,96717.78
2023-03-05T11:29:11.106Z,96750.94
2023-03-05T11:31:37.538Z,96731.69
2023-03-05T11:34:07.727Z,96713.44
2023-03-05T11:36:38.077Z,96705.28
2023-03-05T11:39:08.090Z,96731.63
2023-03-05T11:41:36.212Z,96708.94
2023-03-05T11:44:03.201Z,96699.28
2023-03-05T11:46:30.106Z,96696.19
2023-03-05T11:48:56.676Z,96701.00
2023-03-05T11:51:26.373Z,96720.69
2023-03-05T11:53:55.554Z,96699.03
2023-03-05T11:56:25.893Z,96688.00
2023-03-05T11:58:54.682Z,96671.72
2023-03-05T12:01:24.404Z,96693.81
2023-03-05T12:03:51.091Z,96699.72
2023-03-05T12:06:19.178Z,96684.72
2023-03-05T12:08:47.080Z,96670.13
2023-03-05T12:11:39.725Z,96665.28
2023-03-05T12:14:09.357Z,96693.56
2023-03-05T12:16:59.207Z,96667.97
2023-03-05T12:19:35.112Z,96662.00
2023-03-05T12:22:01.605Z,96676.47
2023-03-05T12:24:28.581Z,96663.72
2023-03-05T12:27:00.936Z,96635.41
2023-03-05T12:29:31.940Z,96645.06
2023-03-05T12:31:58.927Z,96661.94
2023-03-05T12:34:51.425Z,96638.38
2023-03-05T12:37:20.836Z,96636.31
2023-03-05T12:40:07.534Z,96624.91
2023-03-05T12:42:33.870Z,96625.94
2023-03-05T12:45:09.442Z,96633.63
2023-03-05T12:47:40.519Z,96627.00
2023-03-05T12:50:30.447Z,96636.16
2023-03-05T12:53:00.384Z,96632.44
2023-03-05T12:55:50.156Z,96622.38
2023-03-05T12:58:36.326Z,96625.84
2023-03-05T13:01:04.388Z,96622.75
2023-03-05T13:03:32.987Z,96624.72
2023-03-05T13:05:59.506Z,96612.41
2023-03-05T13:08:26.702Z,96620.16
2023-03-05T13:10:53.975Z,96615.56
2023-03-05T13:13:21.304Z,96607.59
2023-03-05T13:15:48.309Z,96618.03
2023-03-05T13:18:21.638Z,96603.88
2023-03-05T13:20:48.334Z,96588.75
2023-03-05T13:23:14.710Z,96626.78
2023-03-05T13:25:41.365Z,96608.75
2023-03-05T13:28:10.798Z,96624.75
2023-03-05T13:30:37.223Z,96604.19
2023-03-05T13:33:04.162Z,96604.41
2023-03-05T13:35:31.222Z,96608.75
2023-03-05T13:37:57.903Z,96604.63
2023-03-05T13:40:25.253Z,96594.97
2023-03-05T13:42:51.788Z,96568.06
2023-03-05T13:45:24.481Z,96595.28
2023-03-05T13:47:51.764Z,96612.81
2023-03-05T13:50:25.753Z,96617.34
2023-03-05T13:52:52.271Z,96608.94
2023-03-05T13:55:19.291Z,96605.66
2023-03-05T13:57:46.516Z,96592.06
2023-03-05T14:00:31.889Z,96605.03
2023-03-05T14:03:07.853Z,96608.22
2023-03-05T14:05:34.382Z,96603.94
2023-03-05T14:08:00.918Z,96590.06
2023-03-05T14:10:31.672Z,96583.91
2023-03-05T14:12:58.558Z,96599.91
2023-03-05T14:15:29.149Z,96587.09
2023-03-05T14:18:11.002Z,96590.56
2023-03-05T14:20:37.823Z,96572.44
2023-03-05T14:23:26.720Z,96615.00
2023-03-05T14:26:14.751Z,96591.56
2023-03-05T14:28:41.230Z,96569.56
2023-03-05T14:31:10.589Z,96582.84
2023-03-05T14:33:37.014Z,96585.03
2023-03-05T14:36:03.545Z,96569.28
2023-03-05T14:38:30.402Z,96574.84
2023-03-05T14:40:56.864Z,96569.88
2023-03-05T14:43:23.397Z,96592.72
2023-03-05T14:45:50.017Z,96592.78
2023-03-05T14:48:16.958Z,96565.69
2023-03-05T14:50:47.780Z,96581.03
2023-03-05T14:53:21.698Z,96562.66
2023-03-05T14:55:48.939Z,96568.75
2023-03-05T14:58:16.116Z,96579.53
2023-03-05T15:00:42.613Z,96571.03
2023-03-05T15:03:12.788Z,96555.00
2023-03-05T15:05:39.276Z,96544.63
2023-03-05T15:08:05.787Z,96576.06
2023-03-05T15:10:32.281Z,96564.13
2023-03-05T15:12:58.698Z,96546.00
2023-03-05T15:15:25.129Z,96553.97
2023-03-05T15:17:51.486Z,96531.03
2023-03-05T15:20:19.636Z,96519.22
2023-03-05T15:22:46.708Z,96540.88
2023-03-05T15:25:13.173Z,96513.97
2023-03-05T15:27:39.685Z,96529.66
2023-03-05T15:30:06.799Z,96509.34
2023-03-05T15:32:33.331Z,96523.91
2023-03-05T15:34:59.812Z,96527.06
2023-03-05T15:37:26.354Z,96493.69
2023-03-05T15:39:53.765Z,96507.06
2023-03-05T15:42:20.217Z,96509.19
2023-03-05T15:44:46.634Z,96477.22
2023-03-05T15:47:13.099Z,96498.50
2023-03-05T15:49:39.488Z,96507.06
2023-03-05T15:52:06.009Z,96492.84
2023-03-05T15:54:32.469Z,96508.34
2023-03-05T15:56:58.825Z,96504.53
2023-03-05T15:59:25.221Z,96501.63
2023-03-05T16:01:51.721Z,96507.94
2023-03-05T16:04:18.293Z,96489.31
2023-03-05T16:06:45.423Z,96502.31
2023-03-05T16:09:11.887Z,96496.75
2023-03-05T16:11:38.322Z,96490.31
2023-03-05T16:14:05.709Z,96513.25
2023-03-05T16:16:33.113Z,96502.63
2023-03-05T16:18:59.977Z,96506.03
2023-03-05T16:21:26.482Z,96479.16
2023-03-05T16:23:52.853Z,96477.03
2023-03-05T16:26:19.363Z,96479.88
2023-03-05T16:28:45.781Z,96488.13
2023-03-05T16:31:12.368Z,96498.41
2023-03-05T16:33:38.976Z,96463.31
2023-03-05T16:36:11.498Z,96487.50
2023-03-05T16:38:38.041Z,96485.81
2023-03-05T16:41:08.823Z,96471.94
2023-03-05T16:43:35.432Z,96490.06
2023-03-05T16:46:01.853Z,96474.97
2023-03-05T16:48:29.291Z,96484.09
2023-03-05T16:50:55.797Z,96499.78
2023-03-05T16:53:22.196Z,96461.47
2023-03-05T16:55:48.660Z,96462.06
2023-03-05T16:58:15.016Z,96495.25
2023-03-05T17:00:41.518Z,96467.66
2023-03-05T17:03:08.108Z,96455.66
2023-03-05T17:05:37.714Z,96470.22
2023-03-05T17:08:04.355Z,96455.34
2023-03-05T17:10:31.070Z,96476.66
2023-03-05T17:12:57.602Z,96464.50
2023-03-05T17:15:24.234Z,96455.72
2023-03-05T17:17:50.651Z,96479.59
2023-03-05T17:20:17.446Z,96467.47
2023-03-05T17:22:43.974Z,96472.28
2023-03-05T17:25:11.509Z,96450.84
2023-03-05T17:27:38.031Z,96463.69
2023-03-05T17:30:05.022Z,96451.84
2023-03-05T17:32:31.682Z,96449.22
2023-03-05T17:34:58.131Z,96473.53
2023-03-05T17:37:24.562Z,96455.66
2023-03-05T17:39:51.168Z,96483.53
2023-03-05T17:42:17.636Z,96464.38
2023-03-05T17:44:44.102Z,96474.50
2023-03-05T17:47:10.623Z,96467.03
2023-03-05T17:49:37.001Z,96467.09
2023-03-05T17:52:03.493Z,96468.38
2023-03-05T17:54:29.973Z,96462.59
2023-03-05T17:56:56.519Z,96486.53
2023-03-05T17:59:23.134Z,96462.28
2023-03-05T18:01:49.548Z,96452.56
2023-03-05T18:04:16.053Z,96453.13
2023-03-05T18:06:43.437Z,96461.72
2023-03-05T18:09:09.935Z,96454.09
2023-03-05T18:11:36.576Z,96435.63
2023-03-05T18:14:03.000Z,96461.66
2023-03-05T18:16:29.497Z,96468.44
2023-03-05T18:18:56.076Z,96437.94
2023-03-05T18:21:22.857Z,96452.31
2023-03-05T18:23:49.363Z,96452.06
2023-03-05T18:26:15.799Z,96449.19
2023-03-05T18:28:42.254Z,96449.91
2023-03-05T18:31:08.771Z,96446.25
2023-03-05T18:33:35.189Z,96455.47
2023-03-05T18:36:01.612Z,96458.69
2023-03-05T18:38:28.403Z,96453.28
2023-03-05T18:40:55.351Z,96438.38
2023-03-05T18:43:22.127Z,96430.13
2023-03-05T18:45:52.476Z,96445.50
2023-03-05T18:48:19.092Z,96457.50
2023-03-05T18:50:45.682Z,96446.88
2023-03-05T18:53:15.231Z,96430.63
2023-03-05T18:55:42.671Z,96423.63
2023-03-05T18:58:09.511Z,96412.63
2023-03-05T19:00:35.913Z,96440.75
2023-03-05T19:03:02.347Z,96412.31
2023-03-05T19:05:29.354Z,96446.06
2023-03-05T19:07:55.894Z,96434.53
2023-03-05T19:10:23.327Z,96439.84
2023-03-05T19:12:49.853Z,96421.34
2023-03-05T19:15:17.315Z,96438.72
2023-03-05T19:17:43.725Z,96429.47
2023-03-05T19:20:13.292Z,96435.31
2023-03-05T19:22:39.725Z,96429.78
2023-03-05T19:25:07.649Z,96402.97
2023-03-05T19:27:34.273Z,96416.72
2023-03-05T19:30:00.990Z,96401.41
2023-03-05T19:32:27.617Z,96393.81
2023-03-05T19:34:57.501Z,96420.34
2023-03-05T19:37:24.172Z,96400.63
2023-03-05T19:39:50.686Z,96391.09
2023-03-05T19:42:18.193Z,96409.63
2023-03-05T19:44:44.705Z,96392.72
2023-03-05T19:47:11.257Z,96419.09
2023-03-05T19:49:37.679Z,96407.38
2023-03-05T19:52:04.269Z,96413.31
2023-03-05T19:54:30.767Z,96414.41
2023-03-05T19:56:57.197Z,96404.81
2023-03-05T19:59:23.612Z,96391.31
2023-03-05T20:01:50.229Z,96412.47
2023-03-05T20:04:18.094Z,96390.81
2023-03-05T20:06:45.993Z,96381.25
2023-03-05T20:09:12.468Z,96404.81
2023-03-05T20:11:38.935Z,96385.19
2023-03-05T20:14:05.406Z,96391.09
2023-03-05T20:16:32.590Z,96412.16
2023-03-05T20:18:59.156Z,96388.50
2023-03-05T20:21:29.620Z,96400.44
2023-03-05T20:23:56.785Z,96384.28
2023-03-05T20:26:23.366Z,96397.06
2023-03-05T20:28:49.935Z,96374.72
2023-03-05T20:31:19.835Z,96383.97
2023-03-05T20:33:46.422Z,96376.59
2023-03-05T20:36:12.866Z,96372.03
2023-03-05T20:38:39.254Z,96383.19
2023-03-05T20:41:09.476Z,96390.91
2023-03-05T20:43:36.756Z,96367.69
2023-03-05T20:46:03.396Z,96363.00
2023-03-05T20:48:30.714Z,96373.06
2023-03-05T20:50:57.146Z,96372.72
2023-03-05T20:53:23.835Z,96355.28
2023-03-05T20:55:50.263Z,96387.69
2023-03-05T20:58:16.714Z,96325.56
2023-03-05T21:00:43.136Z,96367.34
2023-03-05T21:03:09.679Z,96368.16
2023-03-05T21:05:36.454Z,96343.56
2023-03-05T21:08:03.039Z,96363.81
2023-03-05T21:10:29.724Z,96357.69
2023-03-05T21:12:56.197Z,96376.78
2023-03-05T21:15:26.934Z,96366.09
2023-03-05T21:17:53.490Z,96361.59
2023-03-05T21:20:23.066Z,96324.31
2023-03-05T21:22:49.601Z,96343.41
2023-03-05T21:25:23.117Z,96353.84
2023-03-05T21:28:09.748Z,96348.53
2023-03-05T21:30:40.551Z,96352.41
2023-03-05T21:33:07.952Z,96347.97
2023-03-05T21:35:34.577Z,96350.09
2023-03-05T21:38:01.245Z,96332.53
2023-03-05T21:40:27.762Z,96335.41
2023-03-05T21:42:54.384Z,96300.13
2023-03-05T21:45:21.890Z,96334.94
2023-03-05T21:47:48.366Z,96341.47
2023-03-05T21:50:15.025Z,96323.88
2023-03-05T21:52:41.508Z,96328.75
2023-03-05T21:55:08.168Z,96336.53
2023-03-05T21:57:34.559Z,96319.28
2023-03-05T22:00:01.056Z,96331.00
2023-03-05T22:02:27.700Z,96323.34
2023-03-05T22:04:54.217Z,96301.81
2023-03-05T22:07:20.898Z,96290.13
2023-03-05T22:09:48.049Z,96283.03
2023-03-05T22:12:14.469Z,96294.69
2023-03-05T22:14:41.198Z,96285.88
2023-03-05T22:17:07.682Z,96294.38
2023-03-05T22:19:34.108Z,96292.56
2023-03-05T22:22:00.543Z,96311.66
2023-03-05T22:24:26.972Z,96281.13
2023-03-05T22:26:53.413Z,96303.72
2023-03-05T22:29:19.902Z,96272.03
2023-03-05T22:31:46.298Z,96275.19
2023-03-05T22:34:12.785Z,96278.22
2023-03-05T22:36:39.277Z,96297.28
2023-03-05T22:39:05.686Z,96271.50
2023-03-05T22:41:32.137Z,96269.69
2023-03-05T22:43:58.554Z,96267.34
2023-03-05T22:46:25.370Z,96265.63
2023-03-05T22:48:51.958Z,96282.13
2023-03-05T22:51:18.515Z,96270.69
2023-03-05T22:53:44.890Z,96252.63
2023-03-05T22:56:12.398Z,96265.47
2023-03-05T22:58:38.838Z,96242.03
2023-03-05T23:01:15.256Z,96256.88
2023-03-05T23:03:42.198Z,96228.75
2023-03-05T23:06:08.904Z,96252.69
2023-03-05T23:08:35.588Z,96241.16
2023-03-05T23:11:06.475Z,96227.75
2023-03-05T23:13:32.885Z,96247.50
2023-03-05T23:15:59.593Z,96230.84
2023-03-05T23:18:26.153Z,96218.31
2023-03-05T23:20:52.578Z,96226.69
2023-03-05T23:23:19.527Z,96235.41
2023-03-05T23:25:45.944Z,96237.94
2023-03-05T23:28:12.394Z,96237.31
2023-03-05T23:30:38.975Z,96220.38
2023-03-05T23:33:06.444Z,96234.72
2023-03-05T23:35:34.105Z,96200.19
2023-03-05T23:38:00.985Z,96225.22
2023-03-05T23:40:28.549Z,96208.50
2023-03-05T23:42:55.009Z,96200.28
2023-03-05T23:45:21.989Z,96224.97
2023-03-05T23:47:48.486Z,96227.88
2023-03-05T23:50:19.310Z,96208.25
2023-03-05T23:52:45.837Z,96207.81
2023-03-05T23:55:16.318Z,96200.56
2023-03-05T23:57:44.259Z,96187.84
